createdAt,value
2023-03-15T05:48:08.870Z,51.22
2023-03-15T05:50:35.277Z,51.01
2023-03-15T05:53:02.085Z,50.52
2023-03-15T05:55:28.484Z,50.64
2023-03-15T05:57:54.907Z,50.44
2023-03-15T06:00:21.831Z,50.64
2023-03-15T06:02:48.290Z,50.62
2023-03-15T06:05:14.803Z,50.52
2023-03-15T06:07:41.633Z,50.65
2023-03-15T06:10:08.240Z,50.47
2023-03-15T06:12:34.620Z,50.38
2023-03-15T06:15:01.030Z,50.34
2023-03-15T06:17:27.463Z,50.72
2023-03-15T06:19:53.846Z,50.36
2023-03-15T06:22:20.659Z,50.63
2023-03-15T06:24:47.240Z,50.70
2023-03-15T06:27:13.671Z,50.38
2023-03-15T06:29:42.652Z,50.78
2023-03-15T06:32:09.250Z,50.63
2023-03-15T06:34:35.637Z,50.79
2023-03-15T06:37:02.016Z,50.74
2023-03-15T06:39:28.387Z,50.68
2023-03-15T06:41:58.499Z,50.62
2023-03-15T06:44:24.950Z,50.55
2023-03-15T06:46:51.379Z,50.55
2023-03-15T06:49:17.792Z,50.84
2023-03-15T06:51:45.444Z,50.71
2023-03-15T06:54:11.869Z,50.74
2023-03-15T06:56:38.536Z,50.57
2023-03-15T06:59:05.252Z,50.98
2023-03-15T07:01:31.726Z,51.04
2023-03-15T07:03:58.171Z,50.93
2023-03-15T07:06:24.525Z,50.96
2023-03-15T07:08:50.911Z,50.68
2023-03-15T07:11:18.731Z,50.84
2023-03-15T07:13:45.128Z,50.91
2023-03-15T07:16:11.670Z,50.89
2023-03-15T07:18:38.099Z,50.60
2023-03-15T07:21:05.176Z,50.83
2023-03-15T07:23:31.758Z,50.98
2023-03-15T07:25:58.249Z,50.82
2023-03-15T07:28:25.293Z,51.24
2023-03-15T07:30:59.144Z,51.24
2023-03-15T07:33:26.239Z,51.16
2023-03-15T07:35:56.133Z,51.18
2023-03-15T07:38:23.780Z,51.01
2023-03-15T07:40:50.240Z,51.06
2023-03-15T07:43:16.601Z,51.23
2023-03-15T07:45:43.061Z,51.17
2023-03-15T07:48:09.531Z,51.31
2023-03-15T07:50:37.142Z,50.89
2023-03-15T07:53:04.108Z,51.38
2023-03-15T07:55:31.566Z,51.20
2023-03-15T07:57:57.934Z,50.89
2023-03-15T08:00:24.362Z,50.92
2023-03-15T08:02:50.771Z,51.08
2023-03-15T08:05:19.082Z,51.10
2023-03-15T08:07:48.998Z,50.90
2023-03-15T08:10:16.395Z,50.86
2023-03-15T08:12:43.176Z,50.67
2023-03-15T08:15:16.265Z,50.90
2023-03-15T08:17:42.813Z,50.91
2023-03-15T08:20:11.713Z,50.96
2023-03-15T08:22:38.600Z,50.67
2023-03-15T08:25:05.234Z,50.79
2023-03-15T08:27:31.640Z,50.75
2023-03-15T08:30:00.351Z,50.74
2023-03-15T08:32:26.884Z,50.97
2023-03-15T08:34:53.332Z,50.56
2023-03-15T08:37:20.068Z,50.75
2023-03-15T08:39:46.458Z,50.94
2023-03-15T08:42:13.556Z,50.79
2023-03-15T08:44:39.969Z,50.98
2023-03-15T08:47:06.442Z,50.70
2023-03-15T08:49:32.884Z,50.50
2023-03-15T08:51:59.274Z,50.43
2023-03-15T08:54:27.480Z,50.54
2023-03-15T08:56:53.931Z,50.63
2023-03-15T08:59:31.365Z,50.41
2023-03-15T09:01:59.679Z,50.70
2023-03-15T09:04:26.151Z,51.12
2023-03-15T09:06:53.830Z,50.92
2023-03-15T09:09:20.187Z,50.82
2023-03-15T09:11:46.564Z,50.13
2023-03-15T09:14:12.925Z,50.34
2023-03-15T09:16:39.314Z,49.94
2023-03-15T09:19:05.698Z,50.18
2023-03-15T09:21:32.041Z,50.33
2023-03-15T09:23:58.467Z,50.33
2023-03-15T09:26:24.892Z,49.83
2023-03-15T09:28:51.355Z,49.85
2023-03-15T09:31:17.767Z,50.06
2023-03-15T09:33:46.657Z,49.88
2023-03-15T09:36:13.036Z,50.09
2023-03-15T09:38:39.458Z,49.73
2023-03-15T09:41:06.395Z,49.86
2023-03-15T09:43:59.171Z,49.58
2023-03-15T09:46:27.947Z,49.52
2023-03-15T09:48:58.384Z,49.21
2023-03-15T09:51:24.711Z,48.65
2023-03-15T09:53:56.559Z,49.39
2023-03-15T09:56:25.485Z,49.15
2023-03-15T09:58:54.119Z,48.43
2023-03-15T10:01:22.700Z,48.65
2023-03-15T10:03:50.549Z,48.07
2023-03-15T10:06:30.424Z,48.21
2023-03-15T10:08:58.248Z,48.16
2023-03-15T10:11:47.927Z,48.12
2023-03-15T10:14:14.278Z,47.78
2023-03-15T10:16:47.942Z,48.00
2023-03-15T10:19:32.665Z,47.74
2023-03-15T10:22:15.939Z,47.83
2023-03-15T10:25:01.181Z,47.92
2023-03-15T10:27:49.358Z,47.56
2023-03-15T10:30:20.509Z,47.61
2023-03-15T10:32:49.679Z,47.94
2023-03-15T10:35:17.526Z,47.59
2023-03-15T10:37:44.203Z,47.47
2023-03-15T10:40:16.013Z,47.20
2023-03-15T10:42:44.592Z,47.14
2023-03-15T10:45:12.509Z,47.68
2023-03-15T10:47:50.461Z,47.77
2023-03-15T10:50:27.858Z,46.82
2023-03-15T10:52:56.618Z,46.91
2023-03-15T10:55:29.749Z,46.52
2023-03-15T10:57:57.372Z,46.87
2023-03-15T11:00:26.890Z,46.94
2023-03-15T11:03:14.368Z,47.08
2023-03-15T11:05:45.309Z,47.86
2023-03-15T11:08:15.994Z,47.96
2023-03-15T11:10:44.349Z,48.16
2023-03-15T11:13:29.967Z,48.29
2023-03-15T11:15:56.372Z,47.59
2023-03-15T11:18:28.099Z,47.05
2023-03-15T11:20:56.326Z,47.39
2023-03-15T11:23:26.263Z,46.95
2023-03-15T11:25:53.438Z,46.10
2023-03-15T11:28:22.389Z,46.12
2023-03-15T11:30:48.963Z,46.22
2023-03-15T11:33:25.959Z,46.09
2023-03-15T11:35:52.940Z,46.60
2023-03-15T11:38:35.573Z,47.11
2023-03-15T11:41:14.929Z,47.49
2023-03-15T11:43:56.689Z,48.14
2023-03-15T11:46:29.427Z,48.13
2023-03-15T11:49:00.808Z,48.08
2023-03-15T11:51:28.518Z,47.29
2023-03-15T11:54:04.507Z,47.48
2023-03-15T11:56:46.261Z,47.15
2023-03-15T11:59:21.286Z,47.51
2023-03-15T12:01:49.750Z,47.55
2023-03-15T12:04:25.316Z,47.71
2023-03-15T12:06:55.267Z,47.81
2023-03-15T12:09:33.843Z,46.56
2023-03-15T12:12:02.099Z,47.54
2023-03-15T12:14:32.547Z,46.68
2023-03-15T12:17:17.809Z,46.55
2023-03-15T12:19:44.236Z,45.87
2023-03-15T12:22:17.612Z,46.34
2023-03-15T12:24:46.079Z,46.45
2023-03-15T12:27:17.520Z,45.71
2023-03-15T12:29:48.409Z,44.39
2023-03-15T12:32:16.200Z,43.59
2023-03-15T12:34:42.638Z,41.57
2023-03-15T12:37:13.546Z,44.59
2023-03-15T12:39:40.030Z,44.81
2023-03-15T12:42:06.918Z,43.88
2023-03-15T12:44:33.241Z,43.37
2023-03-15T12:47:01.219Z,43.39
2023-03-15T12:49:34.485Z,43.40
2023-03-15T12:52:27.345Z,42.21
2023-03-15T12:55:12.228Z,43.63
2023-03-15T12:57:54.003Z,42.89
2023-03-15T13:00:22.007Z,42.34
2023-03-15T13:02:49.891Z,43.52
2023-03-15T13:05:18.673Z,43.38
2023-03-15T13:07:54.108Z,43.83
2023-03-15T13:10:23.240Z,43.17
2023-03-15T13:12:58.757Z,42.02
2023-03-15T13:15:28.462Z,43.04
2023-03-15T13:18:02.135Z,43.71
2023-03-15T13:20:42.277Z,42.24
2023-03-15T13:23:15.066Z,42.01
2023-03-15T13:25:47.454Z,42.91
2023-03-15T13:28:24.608Z,43.19
2023-03-15T13:30:54.624Z,43.42
2023-03-15T13:33:24.570Z,42.69
2023-03-15T13:36:02.097Z,43.21
2023-03-15T13:38:30.941Z,43.52
2023-03-15T13:40:58.756Z,43.83
2023-03-15T13:43:29.988Z,43.89
2023-03-15T13:45:56.812Z,43.75
2023-03-15T13:48:23.559Z,44.30
2023-03-15T13:50:50.538Z,44.12
2023-03-15T13:53:35.665Z,44.32
2023-03-15T13:56:10.070Z,44.63
2023-03-15T13:58:38.369Z,44.14
2023-03-15T14:01:06.344Z,44.83
2023-03-15T14:03:32.905Z,44.16
2023-03-15T14:05:59.704Z,44.60
2023-03-15T14:08:28.503Z,44.44
2023-03-15T14:11:02.263Z,44.48
2023-03-15T14:13:35.865Z,44.33
2023-03-15T14:16:06.679Z,44.75
2023-03-15T14:18:33.124Z,44.86
2023-03-15T14:21:07.341Z,44.73
2023-03-15T14:23:38.954Z,45.16
2023-03-15T14:26:05.409Z,44.83
2023-03-15T14:28:32.578Z,44.99
2023-03-15T14:30:59.584Z,45.03
2023-03-15T14:33:39.723Z,44.71
2023-03-15T14:36:09.949Z,44.66
2023-03-15T14:38:38.011Z,44.59
2023-03-15T17:49:00.219Z,43.26
2023-03-15T17:51:34.266Z,43.40
2023-03-15T17:54:01.265Z,43.23
2023-03-15T17:56:28.474Z,43.46
2023-03-15T17:58:54.969Z,43.15
2023-03-15T18:01:27.435Z,43.27
2023-03-15T18:03:54.469Z,43.54
2023-03-15T18:06:21.798Z,43.25
2023-03-15T18:08:48.552Z,43.30
2023-03-15T18:11:23.631Z,43.57
2023-03-15T18:13:50.092Z,43.56
2023-03-15T18:16:16.549Z,43.28
2023-03-15T18:18:43.064Z,43.45
2023-03-15T18:21:27.743Z,43.50
2023-03-15T18:23:54.423Z,43.69
2023-03-15T18:26:21.248Z,43.69
2023-03-15T18:28:49.045Z,43.49
2023-03-15T18:31:17.709Z,43.53
2023-03-15T18:33:44.540Z,43.89
2023-03-15T18:36:11.677Z,43.63
2023-03-15T18:38:38.599Z,43.60
2023-03-15T18:41:12.088Z,43.62
2023-03-15T18:43:38.475Z,43.54
2023-03-15T18:46:04.914Z,43.85
2023-03-15T18:48:40.499Z,43.93
2023-03-15T18:51:09.490Z,43.95
2023-03-15T18:53:35.866Z,43.97
2023-03-15T18:56:02.691Z,44.00
2023-03-15T18:58:29.067Z,43.88
2023-03-15T19:00:55.572Z,43.94
2023-03-15T19:03:22.028Z,44.28
2023-03-15T19:05:48.377Z,44.30
2023-03-15T19:08:14.764Z,44.09
2023-03-15T19:10:42.453Z,44.26
2023-03-15T19:13:08.834Z,43.98
2023-03-15T19:15:35.188Z,44.24
2023-03-15T19:18:02.301Z,44.07
2023-03-15T19:20:28.673Z,44.36
2023-03-15T19:22:55.081Z,44.04
2023-03-15T19:25:21.462Z,44.01
2023-03-15T19:27:47.934Z,44.13
2023-03-15T19:30:18.184Z,44.13
2023-03-15T19:32:45.834Z,44.17
2023-03-15T19:35:12.305Z,44.46
2023-03-15T19:37:39.066Z,44.46
2023-03-15T19:40:09.034Z,44.63
2023-03-15T19:42:35.431Z,44.41
2023-03-15T19:45:01.884Z,44.49
2023-03-15T19:47:28.291Z,44.83
2023-03-15T19:49:55.170Z,45.03
2023-03-15T19:52:21.579Z,44.64
2023-03-15T19:54:48.376Z,44.72
2023-03-15T19:57:14.909Z,45.11
2023-03-15T19:59:41.656Z,44.77
2023-03-15T20:02:10.475Z,44.79
2023-03-15T20:04:36.903Z,45.02
2023-03-15T20:07:03.487Z,45.04
2023-03-15T20:09:29.907Z,44.84
2023-03-15T20:11:56.300Z,45.13
2023-03-15T20:14:25.160Z,45.17
2023-03-15T20:16:51.562Z,44.98
2023-03-15T20:19:17.982Z,45.45
2023-03-15T20:21:44.900Z,45.41
2023-03-15T20:24:11.433Z,45.28
2023-03-15T20:26:37.872Z,45.34
2023-03-15T20:29:04.306Z,45.68
2023-03-15T20:31:30.796Z,45.39
2023-03-15T20:33:57.451Z,45.74
2023-03-15T20:36:23.958Z,45.75
2023-03-15T20:38:50.658Z,45.73
2023-03-15T20:41:18.769Z,45.55
2023-03-15T20:43:46.409Z,45.75
2023-03-15T20:46:13.680Z,45.83
2023-03-15T20:48:40.125Z,45.72
2023-03-15T20:51:06.656Z,46.07
2023-03-15T20:53:34.113Z,45.98
2023-03-15T20:56:00.600Z,46.21
2023-03-15T20:58:27.101Z,46.34
2023-03-15T21:01:02.600Z,46.13
2023-03-15T21:03:31.294Z,46.39
2023-03-15T21:05:57.733Z,46.20
2023-03-15T21:08:24.353Z,46.38
2023-03-15T21:10:50.719Z,46.37
2023-03-15T21:13:17.404Z,46.13
2023-03-15T21:15:47.217Z,46.15
2023-03-15T21:18:17.983Z,46.13
2023-03-15T21:20:44.571Z,46.56
2023-03-15T21:23:11.364Z,46.56
2023-03-15T21:25:38.137Z,46.45
2023-03-15T21:28:04.700Z,46.62
2023-03-15T21:30:31.208Z,46.35
2023-03-15T21:32:57.783Z,46.38
2023-03-15T21:35:25.550Z,46.48
2023-03-15T21:37:51.925Z,46.33
2023-03-15T21:40:18.304Z,46.49
2023-03-15T21:42:47.583Z,46.71
2023-03-15T21:45:14.143Z,46.42
2023-03-15T21:47:40.591Z,46.57
2023-03-15T21:50:07.319Z,46.75
2023-03-15T21:52:33.906Z,46.58
2023-03-15T21:55:01.147Z,46.56
2023-03-15T21:57:27.637Z,46.63
2023-03-15T21:59:55.526Z,46.55
2023-03-15T22:02:22.000Z,46.53
2023-03-15T22:04:48.426Z,46.47
2023-03-15T22:07:14.907Z,46.69
2023-03-15T22:09:43.299Z,46.48
2023-03-15T22:12:09.939Z,46.52
2023-03-15T22:14:36.374Z,46.53
2023-03-15T22:17:05.009Z,46.70
2023-03-15T22:19:32.098Z,46.75
2023-03-15T22:21:58.782Z,46.70
2023-03-15T22:24:25.376Z,46.52
2023-03-15T22:26:53.159Z,46.73
2023-03-15T22:29:21.776Z,46.79
2023-03-15T22:31:48.163Z,46.80
2023-03-15T22:34:14.545Z,46.65
2023-03-15T22:36:42.795Z,47.03
2023-03-15T22:39:09.571Z,46.65
2023-03-15T22:41:35.980Z,47.02
2023-03-15T22:44:02.373Z,47.11
2023-03-15T22:46:34.893Z,47.13
2023-03-15T22:49:02.262Z,46.91
2023-03-15T22:51:30.802Z,46.98
2023-03-15T22:53:57.175Z,47.16
2023-03-15T22:56:23.631Z,47.17
2023-03-15T22:58:50.815Z,47.01
2023-03-15T23:01:17.219Z,46.89
2023-03-15T23:03:43.598Z,47.33
2023-03-15T23:06:09.994Z,47.34
2023-03-15T23:08:36.439Z,46.99
2023-03-15T23:11:03.915Z,47.36
2023-03-15T23:13:30.311Z,47.15
2023-03-15T23:15:56.975Z,47.40
2023-03-15T23:18:25.784Z,47.10
2023-03-15T23:20:52.306Z,47.26
2023-03-15T23:23:18.698Z,47.05
2023-03-15T23:25:46.015Z,47.09
2023-03-15T23:28:13.903Z,47.45
2023-03-15T23:30:40.361Z,47.11
2023-03-15T23:33:08.446Z,47.47
2023-03-15T23:35:35.289Z,47.57
2023-03-15T23:38:02.483Z,47.58
2023-03-15T23:40:30.270Z,47.19
2023-03-15T23:42:59.120Z,47.30
2023-03-15T23:45:27.708Z,47.31
2023-03-15T23:47:55.459Z,47.52
2023-03-15T23:50:26.097Z,47.30
2023-03-15T23:52:53.974Z,47.72
2023-03-15T23:55:20.709Z,47.48
2023-03-15T23:57:47.411Z,47.55
